createdAt,value
2022-11-13T00:01:11.462Z,99281.28
2022-11-13T00:03:58.255Z,99278.91
2022-11-13T00:06:44.086Z,99271.06
2022-11-13T00:09:29.875Z,99275.84
2022-11-13T00:12:15.857Z,99266.31
2022-11-13T00:15:01.615Z,99265.59
2022-11-13T00:17:47.225Z,99258.63
2022-11-13T00:20:32.730Z,99256.94
2022-11-13T00:23:18.364Z,99251.78
2022-11-13T00:26:04.946Z,99251.19
2022-11-13T00:28:54.768Z,99246.06
2022-11-13T00:31:40.230Z,99248.84
2022-11-13T00:34:46.566Z,99236.09
2022-11-13T00:37:31.346Z,99230.25
2022-11-13T00:40:16.948Z,99227.44
2022-11-13T00:43:02.508Z,99219.75
2022-11-13T00:45:48.003Z,99232.19
2022-11-13T00:48:33.866Z,99220.84
2022-11-13T00:51:19.673Z,99216.50
2022-11-13T00:54:05.342Z,99220.00
2022-11-13T00:56:51.109Z,99218.19
2022-11-13T00:59:36.770Z,99209.69
2022-11-13T01:02:22.405Z,99216.81
2022-11-13T01:05:08.479Z,99209.38
2022-11-13T01:07:54.265Z,99218.50
2022-11-13T01:10:53.101Z,99211.50
2022-11-13T01:13:40.438Z,99206.19
2022-11-13T01:16:27.272Z,99208.16
2022-11-13T01:19:13.010Z,99220.72
2022-11-13T01:21:58.588Z,99204.94
2022-11-13T01:24:44.601Z,99200.03
2022-11-13T01:27:30.319Z,99195.25
2022-11-13T01:30:15.962Z,99188.44
2022-11-13T01:33:01.524Z,99195.56
2022-11-13T01:35:46.917Z,99196.13
2022-11-13T01:38:36.251Z,99194.72
2022-11-13T01:41:27.970Z,99187.06
2022-11-13T01:44:15.226Z,99186.34
2022-11-13T01:47:00.586Z,99182.72
2022-11-13T01:49:47.058Z,99179.34
2022-11-13T01:52:35.582Z,99178.19
2022-11-13T01:55:21.488Z,99167.56
2022-11-13T01:58:08.920Z,99162.69
2022-11-13T02:00:54.862Z,99154.88
2022-11-13T02:03:40.690Z,99152.22
2022-11-13T02:06:28.290Z,99150.25
2022-11-13T02:09:15.114Z,99135.16
2022-11-13T02:12:00.961Z,99139.91
2022-11-13T02:14:49.553Z,99128.59
2022-11-13T02:17:42.266Z,99121.16
2022-11-13T02:20:30.555Z,99115.84
2022-11-13T02:23:19.213Z,99112.66
2022-11-13T02:26:05.299Z,99109.16
2022-11-13T02:28:50.817Z,99104.84
2022-11-13T02:31:37.019Z,99100.50
2022-11-13T02:34:22.440Z,99102.16
2022-11-13T02:37:08.268Z,99103.16
2022-11-13T02:39:54.099Z,99095.88
2022-11-13T02:42:39.950Z,99100.91
2022-11-13T02:45:25.649Z,99090.13
2022-11-13T02:48:11.102Z,99095.16
2022-11-13T02:50:56.854Z,99094.31
2022-11-13T02:53:42.718Z,99088.88
2022-11-13T02:56:28.305Z,99085.09
2022-11-13T02:59:14.092Z,99081.44
2022-11-13T03:01:59.429Z,99084.78
2022-11-13T03:05:10.986Z,99076.81
2022-11-13T03:07:51.736Z,99070.81
2022-11-13T03:10:37.564Z,99080.59
2022-11-13T03:13:23.283Z,99076.94
2022-11-13T03:16:10.553Z,99076.13
2022-11-13T03:18:56.908Z,99077.78
2022-11-13T03:21:42.494Z,99074.16
2022-11-13T03:24:28.064Z,99064.50
2022-11-13T03:27:13.902Z,99068.00
2022-11-13T03:29:59.432Z,99067.16
2022-11-13T03:32:45.193Z,99058.22
2022-11-13T03:35:34.861Z,99057.94
2022-11-13T03:38:23.953Z,99049.97
2022-11-13T03:41:09.669Z,99053.84
2022-11-13T03:43:55.466Z,99046.84
2022-11-13T03:46:41.004Z,99045.16
2022-11-13T03:49:26.851Z,99049.38
2022-11-13T03:52:12.299Z,99053.72
2022-11-13T03:54:57.612Z,99045.88
2022-11-13T03:57:43.244Z,99037.44
2022-11-13T04:00:30.157Z,99038.03
2022-11-13T04:03:15.817Z,99029.53
2022-11-13T04:06:01.631Z,99029.69
2022-11-13T04:08:47.340Z,99028.97
2022-11-13T04:11:33.247Z,99030.09
2022-11-13T04:14:18.991Z,99021.59
2022-11-13T04:17:04.805Z,99020.75
2022-11-13T04:19:50.559Z,99009.56
2022-11-13T04:22:36.036Z,99006.09
2022-11-13T04:25:21.949Z,99006.25
2022-11-13T04:28:08.663Z,99005.53
2022-11-13T04:30:54.895Z,98997.84
2022-11-13T04:33:40.491Z,98990.06
2022-11-13T04:36:26.179Z,98983.06
2022-11-13T04:39:11.826Z,98980.56
2022-11-13T04:42:16.297Z,98983.22
2022-11-13T04:45:02.302Z,98983.50
2022-11-13T04:47:48.456Z,98972.19
2022-11-13T04:50:33.953Z,98969.41
2022-11-13T04:53:19.769Z,98965.06
2022-11-13T04:56:05.641Z,98965.31
2022-11-13T04:58:51.352Z,98961.50
2022-11-13T05:01:37.227Z,98957.88
2022-11-13T05:04:22.894Z,98956.03
2022-11-13T05:07:08.405Z,98959.84
2022-11-13T05:09:53.926Z,98951.88
2022-11-13T05:12:39.610Z,98951.31
2022-11-13T05:15:25.599Z,98945.03
2022-11-13T05:18:11.399Z,98942.06
2022-11-13T05:20:57.210Z,98938.75
2022-11-13T05:23:43.034Z,98936.75
2022-11-13T05:26:29.212Z,98938.03
2022-11-13T05:29:14.674Z,98936.69
2022-11-13T05:32:00.315Z,98923.97
2022-11-13T05:34:46.073Z,98925.63
2022-11-13T05:37:32.073Z,98931.41
2022-11-13T05:40:17.818Z,98934.06
2022-11-13T05:43:03.522Z,98930.56
2022-11-13T05:45:49.103Z,98921.50
2022-11-13T05:48:35.031Z,98921.63
2022-11-13T05:51:22.318Z,98922.75
2022-11-13T05:54:07.788Z,98918.84
2022-11-13T05:56:53.460Z,98912.72
2022-11-13T05:59:39.296Z,98926.22
2022-11-13T06:02:25.135Z,98923.56
2022-11-13T06:05:10.922Z,98924.28
2022-11-13T06:07:56.719Z,98929.19
2022-11-13T06:10:42.295Z,98917.88
2022-11-13T06:13:28.797Z,98911.28
2022-11-13T06:16:15.602Z,98907.38
2022-11-13T06:19:02.183Z,98910.16
2022-11-13T06:21:48.068Z,98905.97
2022-11-13T06:24:33.806Z,98922.34
2022-11-13T06:27:19.278Z,98913.69
2022-11-13T06:30:05.341Z,98907.41
2022-11-13T06:32:54.095Z,98902.66
2022-11-13T06:35:39.992Z,98907.69
2022-11-13T06:38:25.591Z,98908.38
2022-11-13T06:41:13.420Z,98904.19
2022-11-13T06:44:02.946Z,98917.47
2022-11-13T06:46:49.015Z,98905.59
2022-11-13T06:49:34.631Z,98905.00
2022-11-13T06:52:20.570Z,98902.34
2022-11-13T06:55:06.099Z,98901.22
2022-11-13T06:57:51.702Z,98898.47
2022-11-13T07:00:39.971Z,98900.63
2022-11-13T07:03:26.756Z,98892.75
2022-11-13T07:06:16.930Z,98902.56
2022-11-13T07:09:02.425Z,98887.09
2022-11-13T07:11:48.227Z,98887.84
2022-11-13T07:14:33.837Z,98886.53
2022-11-13T07:17:19.537Z,98897.13
2022-11-13T07:20:05.463Z,98902.50
2022-11-13T07:22:51.049Z,98897.75
2022-11-13T07:25:36.869Z,98896.00
2022-11-13T07:28:22.515Z,98888.78
2022-11-13T07:31:09.486Z,98893.72
2022-11-13T07:33:55.082Z,98904.44
2022-11-13T07:36:40.610Z,98890.00
2022-11-13T07:39:26.390Z,98894.91
2022-11-13T07:42:11.967Z,98892.25
2022-11-13T07:44:59.941Z,98885.31
2022-11-13T07:47:45.734Z,98877.00
2022-11-13T07:50:32.648Z,98867.91
2022-11-13T07:53:18.624Z,98876.63
2022-11-13T07:56:04.484Z,98865.97
2022-11-13T07:58:49.916Z,98865.16
2022-11-13T08:01:36.100Z,98859.66
2022-11-13T08:04:21.749Z,98844.69
2022-11-13T08:07:08.125Z,98841.50
2022-11-13T08:09:53.824Z,98844.34
2022-11-13T08:12:39.535Z,98852.84
2022-11-13T08:15:25.438Z,98841.34
2022-11-13T08:18:11.281Z,98838.34
2022-11-13T08:20:57.226Z,98836.50
2022-11-13T08:23:42.780Z,98849.19
2022-11-13T08:26:28.280Z,98847.94
2022-11-13T08:29:14.128Z,98858.78
2022-11-13T08:31:59.941Z,98852.38
2022-11-13T08:34:45.573Z,98851.00
2022-11-13T08:37:32.396Z,98846.13
2022-11-13T08:40:17.803Z,98836.94
2022-11-13T08:43:04.258Z,98843.56
2022-11-13T08:45:49.960Z,98850.59
2022-11-13T08:48:35.839Z,98861.72
2022-11-13T08:51:21.755Z,98865.22
2022-11-13T08:54:07.665Z,98861.22
2022-11-13T08:56:57.194Z,98863.25
2022-11-13T08:59:44.321Z,98853.00
2022-11-13T09:02:30.214Z,98865.97
2022-11-13T09:05:15.505Z,98865.19
2022-11-13T09:08:01.462Z,98865.19
2022-11-13T09:10:47.333Z,98871.63
2022-11-13T09:13:33.677Z,98866.41
2022-11-13T09:16:19.637Z,98876.28
2022-11-13T09:19:05.105Z,98878.25
2022-11-13T09:21:51.569Z,98885.31
2022-11-13T09:24:37.484Z,98896.03
2022-11-13T09:27:23.025Z,98892.88
2022-11-13T09:30:09.347Z,98890.91
2022-11-13T09:32:59.207Z,98893.69
2022-11-13T09:35:44.943Z,98898.97
2022-11-13T09:38:32.133Z,98914.97
2022-11-13T09:41:20.688Z,98909.28
2022-11-13T09:44:13.507Z,98900.63
2022-11-13T09:47:06.349Z,98887.03
2022-11-13T09:49:54.707Z,98883.34
2022-11-13T09:52:41.710Z,98880.56
2022-11-13T09:55:36.833Z,98865.31
2022-11-13T09:58:39.738Z,98865.75
2022-11-13T10:01:45.496Z,98847.72
2022-11-13T10:04:37.194Z,98847.91
2022-11-13T10:07:31.009Z,98845.66
2022-11-13T10:10:31.990Z,98829.22
2022-11-13T10:13:37.795Z,98827.81
2022-11-13T10:16:42.079Z,98808.59
2022-11-13T10:19:40.225Z,98812.06
2022-11-13T10:22:38.167Z,98802.19
2022-11-13T10:25:25.885Z,98786.34
2022-11-13T10:28:35.380Z,98790.44
2022-11-13T10:31:20.266Z,98781.91
2022-11-13T10:34:06.654Z,98787.13
2022-11-13T10:37:02.287Z,98774.59
2022-11-13T10:39:47.918Z,98764.94
2022-11-13T10:42:41.042Z,98759.63
2022-11-13T10:45:26.723Z,98742.28
2022-11-13T10:48:22.783Z,98726.16
2022-11-13T10:51:23.482Z,98713.50
2022-11-13T10:54:23.370Z,98686.97
2022-11-13T10:57:28.108Z,98679.63
2022-11-13T11:00:41.471Z,98662.41
2022-11-13T11:03:27.223Z,98635.69
2022-11-13T11:06:12.843Z,98625.88
2022-11-13T11:09:18.666Z,98605.47
2022-11-13T11:12:16.515Z,98588.53
2022-11-13T11:15:19.925Z,98568.28
2022-11-13T11:18:10.209Z,98562.06
2022-11-13T11:20:59.662Z,98556.78
2022-11-13T11:23:53.282Z,98532.81
2022-11-13T11:26:43.779Z,98504.31
2022-11-13T11:29:35.099Z,98507.88
2022-11-13T11:32:50.154Z,98480.34
2022-11-13T11:35:42.029Z,98476.00
2022-11-13T11:38:39.459Z,98466.75
2022-11-13T11:41:51.552Z,98450.63
2022-11-13T11:44:52.388Z,98427.03
2022-11-13T11:47:38.047Z,98413.03
2022-11-13T11:50:44.175Z,98411.53
2022-11-13T11:53:48.255Z,98395.66
2022-11-13T11:56:36.022Z,98385.94
2022-11-13T11:59:25.176Z,98376.63
2022-11-13T12:02:29.854Z,98365.66
2022-11-13T12:05:23.182Z,98351.81
2022-11-13T12:08:15.169Z,98336.91
2022-11-13T12:11:05.257Z,98322.38
2022-11-13T12:14:09.877Z,98314.97
2022-11-13T12:17:17.330Z,98293.06
2022-11-13T12:20:21.059Z,98289.75
2022-11-13T12:23:23.570Z,98277.31
2022-11-13T12:26:08.975Z,98265.75
2022-11-13T12:29:04.329Z,98267.81
2022-11-13T12:31:52.887Z,98243.06
2022-11-13T12:34:44.700Z,98249.03
2022-11-13T12:37:53.584Z,98247.16
2022-11-13T12:40:45.499Z,98216.13
2022-11-13T12:43:31.100Z,98209.50
2022-11-13T12:46:16.874Z,98211.00
2022-11-13T12:49:02.794Z,98196.28
2022-11-13T12:52:17.645Z,98188.00
2022-11-13T12:55:04.659Z,98172.72
2022-11-13T12:57:50.124Z,98169.22
2022-11-13T13:00:37.448Z,98152.94
2022-11-13T13:03:22.945Z,98148.38
2022-11-13T13:06:14.235Z,98152.09
2022-11-13T13:09:08.280Z,98145.44
2022-11-13T13:12:14.529Z,98133.47
2022-11-13T13:15:19.069Z,98137.19
2022-11-13T13:18:06.575Z,98122.72
2022-11-13T13:20:58.308Z,98124.63
2022-11-13T13:23:48.580Z,98115.31
2022-11-13T13:26:43.965Z,98102.16
2022-11-13T13:29:30.407Z,98106.53
2022-11-13T13:32:23.490Z,98107.53
2022-11-13T13:35:15.400Z,98105.22
2022-11-13T13:38:13.030Z,98101.72
2022-11-13T13:41:09.528Z,98098.41
2022-11-13T13:44:03.506Z,98090.81
2022-11-13T13:46:49.656Z,98090.22
2022-11-13T13:49:35.683Z,98092.72
2022-11-13T13:52:26.713Z,98085.66
2022-11-13T13:55:28.297Z,98087.47
2022-11-13T13:58:15.705Z,98077.66
2022-11-13T14:01:18.415Z,98081.13
2022-11-13T14:04:11.027Z,98077.38
2022-11-13T14:06:58.187Z,98077.81
2022-11-13T14:09:43.909Z,98074.31
2022-11-13T14:12:29.597Z,98069.59
2022-11-13T14:15:41.584Z,98077.91
2022-11-13T14:18:27.474Z,98070.06
2022-11-13T14:21:22.096Z,98074.38
2022-11-13T14:24:14.063Z,98069.06
2022-11-13T14:27:02.732Z,98075.25
2022-11-13T14:29:53.604Z,98069.66
2022-11-13T14:32:45.636Z,98066.16
2022-11-13T14:35:33.157Z,98052.38
2022-11-13T14:38:20.975Z,98067.00
2022-11-13T14:41:07.230Z,98059.16
2022-11-13T14:43:54.328Z,98053.59
2022-11-13T14:46:45.449Z,98058.34
2022-11-13T14:49:33.148Z,98062.28
2022-11-13T14:52:22.839Z,98069.31
2022-11-13T14:55:40.255Z,98069.75
2022-11-13T14:58:27.595Z,98069.75
2022-11-13T15:01:17.031Z,98070.97
2022-11-13T15:04:03.254Z,98078.59
2022-11-13T15:06:50.863Z,98072.03
2022-11-13T15:09:37.001Z,98077.19
2022-11-13T15:12:22.683Z,98078.41
2022-11-13T15:15:13.406Z,98082.53
2022-11-13T15:17:59.162Z,98078.41
2022-11-13T15:20:45.314Z,98080.66
2022-11-13T15:23:31.305Z,98082.09
2022-11-13T15:26:17.480Z,98095.31
2022-11-13T15:29:03.668Z,98094.47
2022-11-13T15:31:49.123Z,98095.88
2022-11-13T15:34:34.914Z,98095.25
2022-11-13T15:37:20.642Z,98097.34
2022-11-13T15:40:06.577Z,98109.44
2022-11-13T15:42:52.090Z,98111.47
2022-11-13T15:45:42.809Z,98112.91
2022-11-13T15:48:30.160Z,98123.63
2022-11-13T15:51:18.613Z,98122.94
2022-11-13T15:54:15.790Z,98126.63
2022-11-13T15:57:01.808Z,98129.09
2022-11-13T15:59:47.531Z,98138.53
2022-11-13T16:02:35.388Z,98132.94
2022-11-13T16:05:23.839Z,98140.75
2022-11-13T16:08:13.374Z,98148.53
2022-11-13T16:10:59.085Z,98149.34
2022-11-13T16:13:44.876Z,98154.66
2022-11-13T16:16:33.947Z,98165.34
2022-11-13T16:19:23.221Z,98164.69
2022-11-13T16:22:18.276Z,98176.75
2022-11-13T16:25:03.912Z,98178.78
2022-11-13T16:27:49.553Z,98182.22
2022-11-13T16:30:35.114Z,98187.09
2022-11-13T16:33:20.692Z,98193.41
2022-11-13T16:36:13.664Z,98196.75
2022-11-13T16:38:59.415Z,98203.16
2022-11-13T16:41:46.444Z,98208.44
2022-11-13T16:44:32.332Z,98210.22
2022-11-13T16:47:21.699Z,98205.66
2022-11-13T16:50:14.912Z,98208.50
2022-11-13T16:53:01.220Z,98206.13
2022-11-13T16:55:46.658Z,98210.75
2022-11-13T16:58:32.409Z,98197.53
2022-11-13T17:01:19.133Z,98203.97
2022-11-13T17:04:05.692Z,98198.16
2022-11-13T17:06:55.330Z,98201.50
2022-11-13T17:09:45.659Z,98196.25
2022-11-13T17:12:31.385Z,98204.53
2022-11-13T17:15:16.913Z,98204.09
2022-11-13T17:18:02.952Z,98204.09
2022-11-13T17:20:52.198Z,98192.38
2022-11-13T17:23:37.899Z,98201.31
2022-11-13T17:26:24.380Z,98207.31
2022-11-13T17:29:09.963Z,98213.34
2022-11-13T17:31:55.652Z,98208.94
2022-11-13T17:34:43.337Z,98213.44
2022-11-13T17:37:28.881Z,98213.41
2022-11-13T17:40:14.457Z,98216.09
2022-11-13T17:43:00.262Z,98208.72
2022-11-13T17:45:52.288Z,98210.38
2022-11-13T17:48:38.264Z,98216.25
2022-11-13T17:51:23.819Z,98205.94
2022-11-13T17:54:09.560Z,98222.84
2022-11-13T17:56:55.223Z,98218.16
2022-11-13T17:59:41.359Z,98219.25
2022-11-13T18:02:27.302Z,98210.31
2022-11-13T18:05:13.186Z,98212.38
2022-11-13T18:07:58.996Z,98213.22
2022-11-13T18:10:44.814Z,98216.72
2022-11-13T18:13:31.382Z,98219.75
2022-11-13T18:16:19.169Z,98219.25
2022-11-13T18:19:08.293Z,98216.66
2022-11-13T18:21:54.707Z,98215.81
2022-11-13T18:24:40.483Z,98220.19
2022-11-13T18:27:26.031Z,98232.47
2022-11-13T18:30:11.988Z,98218.09
2022-11-13T18:32:57.474Z,98221.91
2022-11-13T18:35:43.247Z,98227.91
2022-11-13T18:38:28.881Z,98228.63
2022-11-13T18:41:18.418Z,98223.28
2022-11-13T18:44:03.893Z,98225.28
2022-11-13T18:46:49.689Z,98229.63
2022-11-13T18:49:35.105Z,98225.34
2022-11-13T18:52:20.837Z,98223.88
2022-11-13T18:55:07.112Z,98221.38
2022-11-13T18:57:52.563Z,98219.94
2022-11-13T19:00:38.508Z,98224.38
2022-11-13T19:03:24.226Z,98225.03
2022-11-13T19:06:11.609Z,98226.34
2022-11-13T19:08:58.467Z,98220.44
2022-11-13T19:11:44.679Z,98206.66
2022-11-13T19:14:30.412Z,98210.34
2022-11-13T19:17:16.204Z,98209.66
2022-11-13T19:20:01.729Z,98213.19
2022-11-13T19:22:47.387Z,98208.91
2022-11-13T19:25:33.049Z,98201.91
2022-11-13T19:28:18.586Z,98211.84
2022-11-13T19:31:08.307Z,98206.06
2022-11-13T19:34:00.862Z,98201.91
2022-11-13T19:36:49.413Z,98197.78
2022-11-13T19:39:35.579Z,98202.28
2022-11-13T19:42:20.994Z,98200.63
2022-11-13T19:45:06.998Z,98205.94
2022-11-13T19:47:52.396Z,98212.56
2022-11-13T19:50:38.196Z,98211.56
2022-11-13T19:53:23.903Z,98216.34
2022-11-13T19:56:09.683Z,98215.53
2022-11-13T19:58:56.198Z,98215.88
2022-11-13T20:01:41.989Z,98217.88
2022-11-13T20:04:27.711Z,98207.94
2022-11-13T20:07:13.506Z,98207.63
2022-11-13T20:09:59.369Z,98209.09
2022-11-13T20:12:46.288Z,98208.28
2022-11-13T20:15:32.434Z,98205.44
2022-11-13T20:18:18.175Z,98208.97
2022-11-13T20:21:04.086Z,98202.00
2022-11-13T20:23:49.746Z,98205.31
2022-11-13T20:26:35.614Z,98201.69
2022-11-13T20:29:21.305Z,98204.34
2022-11-13T20:32:07.051Z,98203.88
2022-11-13T20:34:53.007Z,98198.06
2022-11-13T20:37:38.400Z,98206.03
2022-11-13T20:40:24.076Z,98197.22
2022-11-13T20:43:09.540Z,98205.38
2022-11-13T20:46:02.304Z,98205.22
2022-11-13T20:48:47.779Z,98200.06
2022-11-13T20:51:33.540Z,98201.88
2022-11-13T20:54:19.333Z,98205.03
2022-11-13T20:57:05.155Z,98202.38
2022-11-13T20:59:51.300Z,98198.56
2022-11-13T21:02:36.971Z,98200.03
2022-11-13T21:05:22.810Z,98203.66
2022-11-13T21:08:11.450Z,98202.00
2022-11-13T21:10:59.264Z,98209.63
2022-11-13T21:13:45.492Z,98207.81
2022-11-13T21:16:31.768Z,98206.81
2022-11-13T21:19:17.251Z,98208.63
2022-11-13T21:22:02.908Z,98202.81
2022-11-13T21:24:48.478Z,98196.00
2022-11-13T21:27:33.900Z,98214.06
2022-11-13T21:30:19.544Z,98215.53
2022-11-13T21:33:05.274Z,98201.22
2022-11-13T21:35:51.147Z,98184.66
2022-11-13T21:38:36.918Z,98196.59
2022-11-13T21:41:26.808Z,98199.75
2022-11-13T21:44:12.780Z,98195.88
2022-11-13T21:46:58.423Z,98195.88
2022-11-13T21:49:44.218Z,98190.88
2022-11-13T21:52:30.390Z,98183.25
2022-11-13T21:55:16.177Z,98187.28
2022-11-13T21:58:01.692Z,98183.13
2022-11-13T22:00:47.586Z,98170.97
2022-11-13T22:03:33.466Z,98169.00
2022-11-13T22:06:19.042Z,98168.53
2022-11-13T22:09:07.971Z,98175.00
2022-11-13T22:11:54.546Z,98168.69
2022-11-13T22:14:39.987Z,98164.34
2022-11-13T22:17:25.716Z,98161.31
2022-11-13T22:20:11.709Z,98174.97
2022-11-13T22:22:57.459Z,98168.75
2022-11-13T22:25:42.974Z,98179.34
2022-11-13T22:28:29.323Z,98181.81
2022-11-13T22:31:19.515Z,98178.16
2022-11-13T22:34:05.143Z,98173.31
2022-11-13T22:36:50.849Z,98182.09
2022-11-13T22:39:36.499Z,98181.06
2022-11-13T22:42:21.991Z,98167.47
2022-11-13T22:45:22.917Z,98168.00
2022-11-13T22:48:10.123Z,98166.16
2022-11-13T22:50:55.914Z,98164.50
2022-11-13T22:53:42.292Z,98159.19
2022-11-13T22:56:29.640Z,98145.09
2022-11-13T22:59:15.213Z,98144.91
2022-11-13T23:02:01.167Z,98144.25
2022-11-13T23:04:46.799Z,98144.97
2022-11-13T23:07:32.596Z,98148.09
2022-11-13T23:10:18.598Z,98149.41
2022-11-13T23:13:04.139Z,98147.41
2022-11-13T23:15:49.925Z,98148.25
2022-11-13T23:18:35.599Z,98145.22
2022-11-13T23:21:21.622Z,98148.16
2022-11-13T23:24:07.662Z,98143.31
2022-11-13T23:26:53.154Z,98140.66
2022-11-13T23:29:38.824Z,98125.22
2022-11-13T23:32:24.509Z,98111.91
2022-11-13T23:35:10.428Z,98115.09
2022-11-13T23:37:56.095Z,98111.75
2022-11-13T23:40:41.767Z,98110.41
2022-11-13T23:43:53.909Z,98120.53
2022-11-13T23:46:34.285Z,98121.91
2022-11-13T23:49:20.031Z,98127.09
2022-11-13T23:52:05.511Z,98121.25
2022-11-13T23:54:51.335Z,98123.56
2022-11-13T23:57:37.134Z,98124.63
